createdAt,value
2022-10-28T00:00:09.554Z,12.9
2022-10-28T00:03:10.173Z,12.8
2022-10-28T00:06:09.530Z,12.8
2022-10-28T00:09:16.726Z,12.8
2022-10-28T00:12:09.530Z,12.7
2022-10-28T00:15:09.462Z,12.7
2022-10-28T00:18:09.502Z,12.8
2022-10-28T00:21:09.477Z,12.9
2022-10-28T00:24:09.481Z,12.9
2022-10-28T00:27:09.495Z,12.8
2022-10-28T00:30:09.535Z,12.7
2022-10-28T00:33:09.483Z,12.6
2022-10-28T00:36:13.322Z,12.4
2022-10-28T00:39:09.551Z,12.3
2022-10-28T00:42:09.538Z,12.3
2022-10-28T00:45:09.485Z,12.2
2022-10-28T00:48:09.501Z,12.2
2022-10-28T00:51:09.476Z,12.1
2022-10-28T00:54:09.571Z,12.1
2022-10-28T00:57:09.578Z,12
2022-10-28T01:00:09.643Z,12
2022-10-28T01:03:09.503Z,12
2022-10-28T01:06:09.547Z,11.9
2022-10-28T01:09:09.513Z,11.9
2022-10-28T01:12:09.614Z,11.9
2022-10-28T01:15:09.572Z,11.9
2022-10-28T01:18:09.462Z,11.9
2022-10-28T01:21:09.524Z,11.9
2022-10-28T01:24:09.504Z,11.9
2022-10-28T01:27:09.548Z,12.1
2022-10-28T01:30:09.627Z,12.1
2022-10-28T01:33:09.518Z,12.2
2022-10-28T01:36:09.718Z,12.3
2022-10-28T01:39:09.529Z,12.5
2022-10-28T01:42:09.575Z,12.7
2022-10-28T01:45:09.550Z,12.8
2022-10-28T01:48:09.566Z,13
2022-10-28T01:51:09.495Z,12.9
2022-10-28T01:54:09.549Z,12.9
2022-10-28T01:57:09.487Z,13
2022-10-28T02:00:09.488Z,13.2
2022-10-28T02:03:09.514Z,13.3
2022-10-28T02:06:09.567Z,13.4
2022-10-28T02:09:09.506Z,13.4
2022-10-28T02:12:09.587Z,13.3
2022-10-28T02:15:09.955Z,13.1
2022-10-28T02:18:09.672Z,12.9
2022-10-28T02:21:09.511Z,12.8
2022-10-28T02:24:09.501Z,12.7
2022-10-28T02:27:09.525Z,12.6
2022-10-28T02:30:09.491Z,12.5
2022-10-28T02:33:09.498Z,12.5
2022-10-28T02:36:09.533Z,12.4
2022-10-28T02:39:09.471Z,12.4
2022-10-28T02:42:09.494Z,12.5
2022-10-28T02:45:09.557Z,12.6
2022-10-28T02:48:09.504Z,12.6
2022-10-28T02:51:09.482Z,12.7
2022-10-28T02:54:09.480Z,12.7
2022-10-28T02:57:09.485Z,12.6
2022-10-28T03:00:09.531Z,12.6
2022-10-28T03:03:09.542Z,12.5
2022-10-28T03:06:09.509Z,12.5
2022-10-28T03:09:09.527Z,12.6
2022-10-28T03:12:09.543Z,12.6
2022-10-28T03:15:09.549Z,12.6
2022-10-28T03:18:09.641Z,12.5
2022-10-28T03:21:09.537Z,12.5
2022-10-28T03:24:09.546Z,12.6
2022-10-28T03:27:09.498Z,12.6
2022-10-28T03:30:09.516Z,12.5
2022-10-28T03:33:09.534Z,12.4
2022-10-28T03:36:09.507Z,12.4
2022-10-28T03:39:09.599Z,12.2
2022-10-28T03:42:09.466Z,12.1
2022-10-28T03:45:09.479Z,12.1
2022-10-28T03:48:09.624Z,12
2022-10-28T03:51:09.522Z,11.9
2022-10-28T03:54:09.642Z,11.9
2022-10-28T03:57:09.697Z,11.9
2022-10-28T04:00:09.611Z,11.9
2022-10-28T04:03:09.463Z,11.8
2022-10-28T04:06:09.537Z,11.8
2022-10-28T04:09:09.506Z,11.7
2022-10-28T04:12:09.824Z,11.7
2022-10-28T04:15:09.506Z,11.7
2022-10-28T04:18:09.531Z,11.7
2022-10-28T04:21:09.533Z,11.7
2022-10-28T04:24:09.538Z,11.8
2022-10-28T04:27:09.510Z,11.8
2022-10-28T04:30:09.594Z,11.8
2022-10-28T04:33:09.507Z,11.9
2022-10-28T04:36:09.517Z,12
2022-10-28T04:39:09.590Z,12
2022-10-28T04:42:09.472Z,12
2022-10-28T04:45:09.554Z,12.1
2022-10-28T04:48:09.523Z,12.1
2022-10-28T04:51:09.586Z,12.3
2022-10-28T04:54:09.469Z,12.5
2022-10-28T04:57:09.570Z,12.6
2022-10-28T05:00:09.542Z,12.8
2022-10-28T05:03:09.540Z,12.9
2022-10-28T05:06:09.483Z,12.8
2022-10-28T05:09:09.584Z,12.8
2022-10-28T05:12:09.512Z,12.7
2022-10-28T05:15:09.615Z,12.8
2022-10-28T05:18:09.553Z,12.7
2022-10-28T05:21:09.511Z,12.7
2022-10-28T05:24:09.533Z,12.7
2022-10-28T05:27:09.626Z,12.7
2022-10-28T05:30:09.585Z,12.7
2022-10-28T05:33:10.335Z,12.7
2022-10-28T05:36:09.610Z,12.6
2022-10-28T05:39:09.551Z,12.7
2022-10-28T05:42:09.632Z,12.7
2022-10-28T05:45:09.581Z,12.6
2022-10-28T05:48:09.756Z,12.5
2022-10-28T05:51:09.533Z,12.5
2022-10-28T05:54:10.405Z,12.4
2022-10-28T05:57:09.536Z,12.3
2022-10-28T06:00:10.427Z,12.4
2022-10-28T06:03:09.533Z,12.3
2022-10-28T06:06:09.595Z,12.3
2022-10-28T06:09:09.618Z,12.4
2022-10-28T06:12:08.072Z,12.4
2022-10-28T06:15:08.038Z,12.4
2022-10-28T06:18:08.032Z,12.4
2022-10-28T06:21:08.509Z,12.5
2022-10-28T06:24:13.575Z,12.6
2022-10-28T06:27:08.040Z,12.7
2022-10-28T06:30:08.216Z,12.7
2022-10-28T06:33:08.024Z,12.7
2022-10-28T06:36:08.094Z,12.8
2022-10-28T06:39:07.996Z,12.8
2022-10-28T06:42:08.293Z,12.8
2022-10-28T06:45:08.041Z,12.7
2022-10-28T06:48:09.570Z,12.7
2022-10-28T06:51:09.503Z,12.6
2022-10-28T06:54:09.563Z,12.7
2022-10-28T06:57:09.796Z,12.7
2022-10-28T07:00:09.739Z,12.8
2022-10-28T07:03:10.572Z,13.1
2022-10-28T07:06:09.954Z,13.3
2022-10-28T07:09:09.589Z,13.6
2022-10-28T07:12:14.792Z,13.8
2022-10-28T07:15:10.145Z,13.9
2022-10-28T07:18:09.602Z,14.2
2022-10-28T07:21:09.583Z,14.4
2022-10-28T07:24:09.555Z,14.6
2022-10-28T07:27:09.625Z,14.6
2022-10-28T07:30:09.622Z,14.7
2022-10-28T07:33:09.808Z,14.7
2022-10-28T07:36:09.657Z,14.7
2022-10-28T07:39:09.638Z,14.7
2022-10-28T07:42:09.647Z,14.8
2022-10-28T07:45:09.668Z,14.9
2022-10-28T07:48:09.700Z,14.9
2022-10-28T07:51:09.611Z,14.9
2022-10-28T07:54:09.667Z,14.8
2022-10-28T07:57:09.633Z,14.8
2022-10-28T08:00:09.808Z,14.9
2022-10-28T08:03:09.544Z,14.9
2022-10-28T08:06:09.604Z,14.9
2022-10-28T08:09:09.573Z,15.3
2022-10-28T08:12:09.635Z,16.8
2022-10-28T08:15:09.573Z,17.7
2022-10-28T08:18:09.624Z,18.5
2022-10-28T08:24:09.557Z,19.6
2022-10-28T08:27:09.610Z,19.8
2022-10-28T08:30:09.676Z,20.2
2022-10-28T08:33:09.495Z,20.3
2022-10-28T08:36:09.526Z,20.6
2022-10-28T08:39:09.530Z,21.1
2022-10-28T08:42:09.725Z,21.8
2022-10-28T08:45:15.580Z,22.4
2022-10-28T08:51:09.587Z,23.1
2022-10-28T08:54:09.678Z,23.4
2022-10-28T08:57:09.518Z,23.9
2022-10-28T09:00:09.693Z,24.1
2022-10-28T09:03:09.567Z,24.3
2022-10-28T09:06:09.565Z,24.5
2022-10-28T09:12:09.599Z,24.9
2022-10-28T09:18:09.594Z,25.1
2022-10-28T09:42:09.599Z,25.2
2022-10-28T09:45:09.916Z,24.6
2022-10-28T09:51:09.580Z,23.7
2022-10-28T09:57:10.593Z,23.1
2022-10-28T10:21:09.648Z,22.9
2022-10-28T10:30:09.586Z,23.9
2022-10-28T10:33:09.675Z,24.7
2022-10-28T10:45:09.510Z,26.8
2022-10-28T10:51:09.619Z,26.3
2022-10-28T11:15:09.639Z,25.9
2022-10-28T11:24:09.570Z,26.6
2022-10-28T11:42:09.584Z,26.1
2022-10-28T11:45:09.549Z,25.8
2022-10-28T11:48:09.838Z,25.5
2022-10-28T12:00:09.809Z,25.8
2022-10-28T12:09:09.793Z,25.5
2022-10-28T12:42:09.685Z,25.1
2022-10-28T13:21:09.552Z,24.1
2022-10-28T13:27:09.778Z,24.1
2022-10-28T13:33:09.578Z,24.2
2022-10-28T13:45:09.680Z,24.1
2022-10-28T14:00:09.811Z,23.7
2022-10-28T14:06:10.184Z,23.4
2022-10-28T14:24:09.615Z,23.1
2022-10-28T15:30:09.637Z,21.1
2022-10-28T15:33:09.551Z,20.9
2022-10-28T15:36:12.625Z,20.8
2022-10-28T15:42:09.566Z,20.4
2022-10-28T16:06:09.540Z,20.4
2022-10-28T16:45:09.554Z,19.5
2022-10-28T16:48:09.768Z,19.4
2022-10-28T17:00:09.543Z,18.8
2022-10-28T17:12:09.498Z,18.7
2022-10-28T17:15:09.553Z,18.8
2022-10-28T17:33:09.527Z,19.7
2022-10-28T17:39:16.557Z,19.8
2022-10-28T17:45:09.548Z,19.9
2022-10-28T17:54:09.603Z,20.3
2022-10-28T17:57:09.614Z,20.3
2022-10-28T18:18:09.506Z,20.6
2022-10-28T18:27:09.549Z,20.5
2022-10-28T18:33:09.559Z,20.4
2022-10-28T18:48:09.635Z,20.3
2022-10-28T18:54:09.761Z,20.3
2022-10-28T19:00:28.862Z,20.2
2022-10-28T19:33:09.586Z,19.4
2022-10-28T19:36:09.564Z,19.3
2022-10-28T19:45:09.570Z,19.1
2022-10-28T19:48:09.524Z,18.9
2022-10-28T20:03:09.727Z,18.7
2022-10-28T20:06:09.586Z,18.7
2022-10-28T20:15:09.664Z,18.8
2022-10-28T20:18:09.525Z,18.8
2022-10-28T20:27:09.601Z,18.6
2022-10-28T20:30:09.605Z,18.6
2022-10-28T20:39:09.587Z,18.2
2022-10-28T20:42:09.539Z,18.1
2022-10-28T21:18:09.674Z,17.3
2022-10-28T21:42:09.727Z,17.2
2022-10-28T21:48:09.518Z,17.2
2022-10-28T22:18:09.574Z,16.8
2022-10-28T22:27:09.822Z,16.8
2022-10-28T22:42:09.610Z,16.6
2022-10-28T22:54:09.574Z,16.2
2022-10-28T23:18:09.533Z,14.9
2022-10-28T23:27:09.545Z,14.7
2022-10-28T23:30:09.531Z,14.7
2022-10-28T23:42:09.563Z,15.2
